sensor_id;sensor_type;location;lat;lon;timestamp;pressure;altitude;pressure_sealevel;temperature;humidity
59939;BME280;45801;51.810;19.444;2023-08-30T00:00:55;98065.30;;;18.47;86.51
59939;BME280;45801;51.810;19.444;2023-08-30T00:03:32;98065.83;;;18.46;86.23
59939;BME280;45801;51.810;19.444;2023-08-30T00:06:03;98075.59;;;18.46;86.40
59939;BME280;45801;51.810;19.444;2023-08-30T00:08:30;98073.64;;;18.47;86.13
59939;BME280;45801;51.810;19.444;2023-08-30T00:10:57;98068.83;;;18.49;86.18
59939;BME280;45801;51.810;19.444;2023-08-30T00:13:29;98071.65;;;18.50;86.00
59939;BME280;45801;51.810;19.444;2023-08-30T00:15:55;98070.77;;;18.51;86.11
59939;BME280;45801;51.810;19.444;2023-08-30T00:18:21;98065.09;;;18.52;86.03
59939;BME280;45801;51.810;19.444;2023-08-30T00:20:47;98062.25;;;18.52;86.08
59939;BME280;45801;51.810;19.444;2023-08-30T00:23:13;98059.05;;;18.52;86.07
59939;BME280;45801;51.810;19.444;2023-08-30T00:25:39;98053.57;;;18.50;85.82
59939;BME280;45801;51.810;19.444;2023-08-30T00:28:05;98051.63;;;18.49;85.88
59939;BME280;45801;51.810;19.444;2023-08-30T00:30:32;98042.61;;;18.47;85.94
59939;BME280;45801;51.810;19.444;2023-08-30T00:32:58;98041.02;;;18.46;85.83
59939;BME280;45801;51.810;19.444;2023-08-30T00:35:24;98038.00;;;18.47;85.94
59939;BME280;45801;51.810;19.444;2023-08-30T00:37:49;98034.29;;;18.45;85.73
59939;BME280;45801;51.810;19.444;2023-08-30T00:40:15;98039.24;;;18.47;86.12
59939;BME280;45801;51.810;19.444;2023-08-30T00:42:41;98044.35;;;18.50;85.50
59939;BME280;45801;51.810;19.444;2023-08-30T00:45:07;98044.17;;;18.50;85.30
59939;BME280;45801;51.810;19.444;2023-08-30T00:47:34;98043.11;;;18.49;85.29
59939;BME280;45801;51.810;19.444;2023-08-30T00:50:01;98035.86;;;18.47;85.23
59939;BME280;45801;51.810;19.444;2023-08-30T00:52:27;98031.98;;;18.45;85.43
59939;BME280;45801;51.810;19.444;2023-08-30T00:54:52;98031.08;;;18.48;85.56
59939;BME280;45801;51.810;19.444;2023-08-30T00:57:18;98028.02;;;18.53;85.37
59939;BME280;45801;51.810;19.444;2023-08-30T00:59:44;98029.07;;;18.56;84.87
59939;BME280;45801;51.810;19.444;2023-08-30T01:02:10;98029.75;;;18.59;84.63
59939;BME280;45801;51.810;19.444;2023-08-30T01:04:38;98026.02;;;18.60;84.12
59939;BME280;45801;51.810;19.444;2023-08-30T01:07:03;98026.02;;;18.60;84.33
59939;BME280;45801;51.810;19.444;2023-08-30T01:09:29;98028.65;;;18.63;84.40
59939;BME280;45801;51.810;19.444;2023-08-30T01:12:03;98021.89;;;18.65;83.83
59939;BME280;45801;51.810;19.444;2023-08-30T01:14:44;98009.16;;;18.61;83.89
59939;BME280;45801;51.810;19.444;2023-08-30T01:17:13;98005.48;;;18.58;83.63
59939;BME280;45801;51.810;19.444;2023-08-30T01:19:51;98007.80;;;18.52;83.53
59939;BME280;45801;51.810;19.444;2023-08-30T01:25:25;98009.29;;;18.46;84.11
59939;BME280;45801;51.810;19.444;2023-08-30T01:27:54;98005.58;;;18.44;83.99
59939;BME280;45801;51.810;19.444;2023-08-30T01:30:22;98000.98;;;18.43;83.91
59939;BME280;45801;51.810;19.444;2023-08-30T01:32:50;98000.48;;;18.41;84.11
59939;BME280;45801;51.810;19.444;2023-08-30T01:35:17;97996.59;;;18.38;83.79
59939;BME280;45801;51.810;19.444;2023-08-30T01:37:46;97993.59;;;18.36;84.01
59939;BME280;45801;51.810;19.444;2023-08-30T01:40:15;97993.95;;;18.34;84.11
59939;BME280;45801;51.810;19.444;2023-08-30T01:42:43;97990.96;;;18.32;84.32
59939;BME280;45801;51.810;19.444;2023-08-30T01:45:11;97991.50;;;18.30;84.40
59939;BME280;45801;51.810;19.444;2023-08-30T01:47:41;97987.61;;;18.29;84.45
59939;BME280;45801;51.810;19.444;2023-08-30T01:50:08;97988.33;;;18.28;84.60
59939;BME280;45801;51.810;19.444;2023-08-30T01:52:35;97989.58;;;18.27;84.22
59939;BME280;45801;51.810;19.444;2023-08-30T01:55:02;97983.90;;;18.27;84.28
59939;BME280;45801;51.810;19.444;2023-08-30T01:57:28;97989.05;;;18.27;84.61
59939;BME280;45801;51.810;19.444;2023-08-30T01:59:54;97990.30;;;18.26;84.43
59939;BME280;45801;51.810;19.444;2023-08-30T02:02:19;97989.77;;;18.26;84.11
59939;BME280;45801;51.810;19.444;2023-08-30T02:04:45;97990.13;;;18.26;84.00
59939;BME280;45801;51.810;19.444;2023-08-30T02:07:19;97992.42;;;18.25;84.34
59939;BME280;45801;51.810;19.444;2023-08-30T02:10:06;97991.19;;;18.25;84.30
59939;BME280;45801;51.810;19.444;2023-08-30T02:12:51;97991.39;;;18.23;83.86
59939;BME280;45801;51.810;19.444;2023-08-30T02:15:20;97994.40;;;18.21;83.97
59939;BME280;45801;51.810;19.444;2023-08-30T02:17:48;97992.30;;;18.18;84.12
59939;BME280;45801;51.810;19.444;2023-08-30T02:20:14;97993.38;;;18.18;84.25
59939;BME280;45801;51.810;19.444;2023-08-30T02:22:40;97994.08;;;18.17;84.18
59939;BME280;45801;51.810;19.444;2023-08-30T02:25:06;97992.48;;;18.16;84.14
59939;BME280;45801;51.810;19.444;2023-08-30T02:27:34;97991.25;;;18.15;83.64
59939;BME280;45801;51.810;19.444;2023-08-30T02:30:00;97985.95;;;18.14;83.46
59939;BME280;45801;51.810;19.444;2023-08-30T02:32:27;97983.48;;;18.12;83.59
59939;BME280;45801;51.810;19.444;2023-08-30T02:34:56;97985.77;;;18.12;83.89
59939;BME280;45801;51.810;19.444;2023-08-30T02:37:22;97981.55;;;18.10;83.74
59939;BME280;45801;51.810;19.444;2023-08-30T02:39:48;97978.73;;;18.07;83.94
59939;BME280;45801;51.810;19.444;2023-08-30T02:42:14;97974.85;;;18.06;83.95
59939;BME280;45801;51.810;19.444;2023-08-30T02:44:40;97978.57;;;18.04;84.21
59939;BME280;45801;51.810;19.444;2023-08-30T02:47:06;97976.29;;;18.03;84.06
59939;BME280;45801;51.810;19.444;2023-08-30T02:49:32;97973.12;;;17.99;84.19
59939;BME280;45801;51.810;19.444;2023-08-30T02:51:57;97969.23;;;17.97;84.44
59939;BME280;45801;51.810;19.444;2023-08-30T02:54:23;97966.94;;;17.95;84.67
59939;BME280;45801;51.810;19.444;2023-08-30T02:56:49;97964.82;;;17.95;84.72
59939;BME280;45801;51.810;19.444;2023-08-30T02:59:15;97959.16;;;17.94;84.39
59939;BME280;45801;51.810;19.444;2023-08-30T03:01:41;97962.89;;;17.92;84.68
59939;BME280;45801;51.810;19.444;2023-08-30T03:04:07;97963.24;;;17.90;84.63
59939;BME280;45801;51.810;19.444;2023-08-30T03:06:34;97963.42;;;17.90;84.56
59939;BME280;45801;51.810;19.444;2023-08-30T03:09:01;97971.21;;;17.91;84.18
59939;BME280;45801;51.810;19.444;2023-08-30T03:11:27;97973.34;;;17.91;83.88
59939;BME280;45801;51.810;19.444;2023-08-30T03:13:53;97978.65;;;17.91;83.67
59939;BME280;45801;51.810;19.444;2023-08-30T03:16:20;97982.02;;;17.92;84.05
59939;BME280;45801;51.810;19.444;2023-08-30T03:18:46;97985.02;;;17.92;84.23
59939;BME280;45801;51.810;19.444;2023-08-30T03:21:13;97987.86;;;17.92;84.30
59939;BME280;45801;51.810;19.444;2023-08-30T03:23:40;97987.16;;;17.92;84.03
59939;BME280;45801;51.810;19.444;2023-08-30T03:26:14;97989.99;;;17.91;84.34
59939;BME280;45801;51.810;19.444;2023-08-30T03:28:42;97991.77;;;17.90;84.12
59939;BME280;45801;51.810;19.444;2023-08-30T03:31:12;97989.63;;;17.89;84.10
59939;BME280;45801;51.810;19.444;2023-08-30T03:33:39;97984.50;;;17.89;83.90
59939;BME280;45801;51.810;19.444;2023-08-30T03:36:11;97984.14;;;17.88;83.98
59939;BME280;45801;51.810;19.444;2023-08-30T03:38:38;97983.61;;;17.88;83.61
59939;BME280;45801;51.810;19.444;2023-08-30T03:41:04;97985.73;;;17.89;83.39
59939;BME280;45801;51.810;19.444;2023-08-30T03:43:31;97985.39;;;17.87;83.87
59939;BME280;45801;51.810;19.444;2023-08-30T03:45:59;97987.86;;;17.86;83.65
59939;BME280;45801;51.810;19.444;2023-08-30T03:48:25;97983.09;;;17.85;83.59
59939;BME280;45801;51.810;19.444;2023-08-30T03:50:51;97982.20;;;17.84;83.52
59939;BME280;45801;51.810;19.444;2023-08-30T03:53:17;97985.05;;;17.83;83.76
59939;BME280;45801;51.810;19.444;2023-08-30T03:55:43;97981.52;;;17.82;83.63
59939;BME280;45801;51.810;19.444;2023-08-30T03:58:09;97976.91;;;17.81;83.80
59939;BME280;45801;51.810;19.444;2023-08-30T04:00:38;97984.54;;;17.81;83.35
59939;BME280;45801;51.810;19.444;2023-08-30T04:03:08;97988.96;;;17.78;83.66
59939;BME280;45801;51.810;19.444;2023-08-30T04:05:36;97988.09;;;17.77;83.61
59939;BME280;45801;51.810;19.444;2023-08-30T04:08:03;97988.27;;;17.77;83.48
59939;BME280;45801;51.810;19.444;2023-08-30T04:10:34;97996.43;;;17.77;83.64
59939;BME280;45801;51.810;19.444;2023-08-30T04:13:03;97998.72;;;17.77;83.48
59939;BME280;45801;51.810;19.444;2023-08-30T04:15:29;97995.36;;;17.75;83.78
59939;BME280;45801;51.810;19.444;2023-08-30T04:17:57;97994.84;;;17.74;83.66
59939;BME280;45801;51.810;19.444;2023-08-30T04:20:23;97993.61;;;17.73;83.51
59939;BME280;45801;51.810;19.444;2023-08-30T04:22:49;97995.20;;;17.73;83.30
59939;BME280;45801;51.810;19.444;2023-08-30T04:25:15;97992.02;;;17.71;83.60
59939;BME280;45801;51.810;19.444;2023-08-30T04:27:41;97996.45;;;17.70;84.03
59939;BME280;45801;51.810;19.444;2023-08-30T04:30:07;97992.92;;;17.67;84.07
59939;BME280;45801;51.810;19.444;2023-08-30T04:32:33;97995.05;;;17.67;83.66
59939;BME280;45801;51.810;19.444;2023-08-30T04:34:59;97994.52;;;17.67;83.65
59939;BME280;45801;51.810;19.444;2023-08-30T04:37:24;97997.91;;;17.65;84.05
59939;BME280;45801;51.810;19.444;2023-08-30T04:39:50;97999.85;;;17.63;84.35
59939;BME280;45801;51.810;19.444;2023-08-30T04:42:16;98001.63;;;17.61;84.66
59939;BME280;45801;51.810;19.444;2023-08-30T04:44:42;98000.56;;;17.61;84.60
59939;BME280;45801;51.810;19.444;2023-08-30T04:47:08;98002.70;;;17.60;84.91
59939;BME280;45801;51.810;19.444;2023-08-30T04:49:34;98001.46;;;17.57;85.01
59939;BME280;45801;51.810;19.444;2023-08-30T04:51:59;97999.17;;;17.55;84.59
59939;BME280;45801;51.810;19.444;2023-08-30T04:54:25;97997.23;;;17.55;84.67
59939;BME280;45801;51.810;19.444;2023-08-30T04:56:51;97996.35;;;17.55;84.97
59939;BME280;45801;51.810;19.444;2023-08-30T04:59:17;97991.02;;;17.55;84.97
59939;BME280;45801;51.810;19.444;2023-08-30T05:01:42;97987.84;;;17.56;85.02
59939;BME280;45801;51.810;19.444;2023-08-30T05:04:10;97989.61;;;17.57;84.93
59939;BME280;45801;51.810;19.444;2023-08-30T05:06:36;97990.31;;;17.57;84.93
59939;BME280;45801;51.810;19.444;2023-08-30T05:09:02;97983.59;;;17.57;84.99
59939;BME280;45801;51.810;19.444;2023-08-30T05:11:29;97983.79;;;17.54;85.13
59939;BME280;45801;51.810;19.444;2023-08-30T05:13:55;97976.35;;;17.52;85.58
59939;BME280;45801;51.810;19.444;2023-08-30T05:16:21;97973.52;;;17.51;85.13
59939;BME280;45801;51.810;19.444;2023-08-30T05:18:46;97973.54;;;17.50;85.06
59939;BME280;45801;51.810;19.444;2023-08-30T05:21:15;97971.93;;;17.50;85.13
59939;BME280;45801;51.810;19.444;2023-08-30T05:23:41;97971.77;;;17.51;85.09
59939;BME280;45801;51.810;19.444;2023-08-30T05:26:10;97978.30;;;17.52;84.84
59939;BME280;45801;51.810;19.444;2023-08-30T05:28:39;97980.97;;;17.53;84.48
59939;BME280;45801;51.810;19.444;2023-08-30T05:31:05;97981.67;;;17.52;84.33
59939;BME280;45801;51.810;19.444;2023-08-30T05:33:31;97983.25;;;17.53;84.41
59939;BME280;45801;51.810;19.444;2023-08-30T05:35:57;97982.37;;;17.54;84.12
59939;BME280;45801;51.810;19.444;2023-08-30T05:38:23;97984.66;;;17.55;84.17
59939;BME280;45801;51.810;19.444;2023-08-30T05:40:49;97989.08;;;17.56;84.00
59939;BME280;45801;51.810;19.444;2023-08-30T05:43:15;97989.08;;;17.58;84.21
59939;BME280;45801;51.810;19.444;2023-08-30T05:45:41;97989.08;;;17.57;84.10
59939;BME280;45801;51.810;19.444;2023-08-30T05:48:07;97988.73;;;17.55;83.93
59939;BME280;45801;51.810;19.444;2023-08-30T05:50:33;97984.67;;;17.54;84.04
59939;BME280;45801;51.810;19.444;2023-08-30T05:52:59;97982.55;;;17.53;84.18
59939;BME280;45801;51.810;19.444;2023-08-30T05:55:25;97981.11;;;17.55;84.37
59939;BME280;45801;51.810;19.444;2023-08-30T05:57:51;97979.35;;;17.55;84.84
59939;BME280;45801;51.810;19.444;2023-08-30T06:00:17;97982.54;;;17.56;84.81
59939;BME280;45801;51.810;19.444;2023-08-30T06:02:43;97986.60;;;17.56;84.84
59939;BME280;45801;51.810;19.444;2023-08-30T06:05:10;97992.44;;;17.56;84.71
59939;BME280;45801;51.810;19.444;2023-08-30T06:07:37;97996.35;;;17.56;84.84
59939;BME280;45801;51.810;19.444;2023-08-30T06:10:03;97995.11;;;17.57;85.09
59939;BME280;45801;51.810;19.444;2023-08-30T06:12:30;97998.64;;;17.57;85.27
59939;BME280;45801;51.810;19.444;2023-08-30T06:14:56;97996.87;;;17.57;85.12
59939;BME280;45801;51.810;19.444;2023-08-30T06:17:22;98000.76;;;17.59;84.52
59939;BME280;45801;51.810;19.444;2023-08-30T06:19:48;98008.35;;;17.60;84.66
59939;BME280;45801;51.810;19.444;2023-08-30T06:22:13;98010.14;;;17.59;84.68
59939;BME280;45801;51.810;19.444;2023-08-30T06:24:39;98011.56;;;17.57;84.60
59939;BME280;45801;51.810;19.444;2023-08-30T06:27:05;98011.75;;;17.55;84.83
59939;BME280;45801;51.810;19.444;2023-08-30T06:29:31;98014.42;;;17.53;84.86
59939;BME280;45801;51.810;19.444;2023-08-30T06:31:58;98016.01;;;17.50;84.89
59939;BME280;45801;51.810;19.444;2023-08-30T06:34:24;98019.73;;;17.49;85.28
59939;BME280;45801;51.810;19.444;2023-08-30T06:36:50;98022.94;;;17.48;85.21
59939;BME280;45801;51.810;19.444;2023-08-30T06:39:17;98023.99;;;17.48;85.25
59939;BME280;45801;51.810;19.444;2023-08-30T06:41:43;98029.13;;;17.50;85.39
59939;BME280;45801;51.810;19.444;2023-08-30T06:44:09;98035.31;;;17.52;85.34
59939;BME280;45801;51.810;19.444;2023-08-30T06:46:35;98037.43;;;17.52;85.22
59939;BME280;45801;51.810;19.444;2023-08-30T06:49:00;98038.50;;;17.52;85.14
59939;BME280;45801;51.810;19.444;2023-08-30T06:51:26;98038.67;;;17.52;85.22
59939;BME280;45801;51.810;19.444;2023-08-30T06:53:53;98041.16;;;17.51;85.24
59939;BME280;45801;51.810;19.444;2023-08-30T06:56:20;98042.23;;;17.51;85.10
59939;BME280;45801;51.810;19.444;2023-08-30T06:58:46;98036.55;;;17.52;85.02
59939;BME280;45801;51.810;19.444;2023-08-30T07:01:12;98033.89;;;17.53;84.69
59939;BME280;45801;51.810;19.444;2023-08-30T07:03:38;98035.30;;;17.54;84.55
59939;BME280;45801;51.810;19.444;2023-08-30T07:06:05;98039.55;;;17.54;84.74
59939;BME280;45801;51.810;19.444;2023-08-30T07:08:31;98039.55;;;17.56;84.94
59939;BME280;45801;51.810;19.444;2023-08-30T07:10:58;98041.30;;;17.57;84.81
59939;BME280;45801;51.810;19.444;2023-08-30T07:13:24;98043.06;;;17.59;84.62
59939;BME280;45801;51.810;19.444;2023-08-30T07:15:50;98046.42;;;17.61;84.77
59939;BME280;45801;51.810;19.444;2023-08-30T07:18:15;98047.84;;;17.62;84.47
59939;BME280;45801;51.810;19.444;2023-08-30T07:20:41;98052.45;;;17.64;84.65
59939;BME280;45801;51.810;19.444;2023-08-30T07:23:07;98057.91;;;17.64;84.59
59939;BME280;45801;51.810;19.444;2023-08-30T07:25:34;98060.94;;;17.64;84.41
59939;BME280;45801;51.810;19.444;2023-08-30T07:28:02;98063.41;;;17.61;84.68
59939;BME280;45801;51.810;19.444;2023-08-30T07:30:28;98064.85;;;17.59;85.03
59939;BME280;45801;51.810;19.444;2023-08-30T07:32:54;98064.15;;;17.57;85.29
59939;BME280;45801;51.810;19.444;2023-08-30T07:35:20;98063.45;;;17.55;85.24
59939;BME280;45801;51.810;19.444;2023-08-30T07:37:46;98058.48;;;17.55;85.56
59939;BME280;45801;51.810;19.444;2023-08-30T07:40:12;98058.13;;;17.56;85.39
59939;BME280;45801;51.810;19.444;2023-08-30T07:42:38;98060.97;;;17.55;85.60
59939;BME280;45801;51.810;19.444;2023-08-30T07:45:04;98054.59;;;17.55;85.83
59939;BME280;45801;51.810;19.444;2023-08-30T07:47:30;98053.69;;;17.58;86.34
59939;BME280;45801;51.810;19.444;2023-08-30T07:49:56;98047.48;;;17.61;85.93
59939;BME280;45801;51.810;19.444;2023-08-30T07:52:22;98042.70;;;17.61;85.58
59939;BME280;45801;51.810;19.444;2023-08-30T07:54:48;98040.58;;;17.63;85.79
59939;BME280;45801;51.810;19.444;2023-08-30T07:57:14;98043.92;;;17.65;85.95
59939;BME280;45801;51.810;19.444;2023-08-30T07:59:39;98042.16;;;17.65;86.22
59939;BME280;45801;51.810;19.444;2023-08-30T08:02:05;98042.52;;;17.64;86.12
59939;BME280;45801;51.810;19.444;2023-08-30T08:04:34;98044.64;;;17.66;85.85
59939;BME280;45801;51.810;19.444;2023-08-30T08:07:02;98050.99;;;17.68;85.84
59939;BME280;45801;51.810;19.444;2023-08-30T08:09:28;98055.61;;;17.70;85.91
59939;BME280;45801;51.810;19.444;2023-08-30T08:11:55;98060.55;;;17.71;85.73
59939;BME280;45801;51.810;19.444;2023-08-30T08:14:23;98063.22;;;17.72;85.35
59939;BME280;45801;51.810;19.444;2023-08-30T08:16:49;98056.11;;;17.72;84.97
59939;BME280;45801;51.810;19.444;2023-08-30T08:19:15;98053.11;;;17.72;85.18
59939;BME280;45801;51.810;19.444;2023-08-30T08:21:41;98053.65;;;17.70;85.38
59939;BME280;45801;51.810;19.444;2023-08-30T08:24:07;98063.40;;;17.70;85.44
59939;BME280;45801;51.810;19.444;2023-08-30T08:26:32;98067.64;;;17.69;85.29
59939;BME280;45801;51.810;19.444;2023-08-30T08:28:58;98066.41;;;17.67;85.34
59939;BME280;45801;51.810;19.444;2023-08-30T08:31:25;98064.10;;;17.68;85.38
59939;BME280;45801;51.810;19.444;2023-08-30T08:33:52;98063.39;;;17.68;85.58
59939;BME280;45801;51.810;19.444;2023-08-30T08:36:30;98071.02;;;17.68;85.73
59939;BME280;45801;51.810;19.444;2023-08-30T08:38:56;98068.53;;;17.71;85.65
59939;BME280;45801;51.810;19.444;2023-08-30T08:41:27;98066.23;;;17.72;86.03
59939;BME280;45801;51.810;19.444;2023-08-30T08:43:59;98068.33;;;17.74;85.71
59939;BME280;45801;51.810;19.444;2023-08-30T08:46:29;98070.09;;;17.75;86.12
59939;BME280;45801;51.810;19.444;2023-08-30T08:48:57;98073.10;;;17.77;86.17
59939;BME280;45801;51.810;19.444;2023-08-30T08:51:25;98074.85;;;17.80;85.86
59939;BME280;45801;51.810;19.444;2023-08-30T08:53:52;98075.02;;;17.84;85.90
59939;BME280;45801;51.810;19.444;2023-08-30T08:56:20;98071.11;;;17.86;85.86
59939;BME280;45801;51.810;19.444;2023-08-30T08:58:46;98074.13;;;17.88;85.49
59939;BME280;45801;51.810;19.444;2023-08-30T09:01:13;98071.64;;;17.88;85.17
59939;BME280;45801;51.810;19.444;2023-08-30T09:03:39;98073.77;;;17.88;85.45
59939;BME280;45801;51.810;19.444;2023-08-30T09:06:05;98073.60;;;17.88;85.48
59939;BME280;45801;51.810;19.444;2023-08-30T09:08:31;98072.70;;;17.88;85.31
59939;BME280;45801;51.810;19.444;2023-08-30T09:10:57;98072.88;;;17.89;85.52
59939;BME280;45801;51.810;19.444;2023-08-30T09:13:23;98072.89;;;17.89;85.61
59939;BME280;45801;51.810;19.444;2023-08-30T09:15:49;98075.01;;;17.89;85.47
59939;BME280;45801;51.810;19.444;2023-08-30T09:18:16;98071.48;;;17.90;85.54
59939;BME280;45801;51.810;19.444;2023-08-30T09:20:42;98070.77;;;17.89;85.11
59939;BME280;45801;51.810;19.444;2023-08-30T09:23:19;98074.14;;;17.86;84.73
59939;BME280;45801;51.810;19.444;2023-08-30T09:25:46;98071.84;;;17.83;85.03
59939;BME280;45801;51.810;19.444;2023-08-30T09:28:13;98074.67;;;17.81;84.67
59939;BME280;45801;51.810;19.444;2023-08-30T09:30:39;98072.21;;;17.78;84.65
59939;BME280;45801;51.810;19.444;2023-08-30T09:33:05;98073.98;;;17.77;84.77
59939;BME280;45801;51.810;19.444;2023-08-30T09:35:32;98078.59;;;17.76;84.27
59939;BME280;45801;51.810;19.444;2023-08-30T09:37:57;98083.20;;;17.76;84.71
59939;BME280;45801;51.810;19.444;2023-08-30T09:40:23;98085.31;;;17.77;84.76
59939;BME280;45801;51.810;19.444;2023-08-30T09:42:49;98084.61;;;17.78;84.61
59939;BME280;45801;51.810;19.444;2023-08-30T09:45:19;98083.89;;;17.79;84.49
59939;BME280;45801;51.810;19.444;2023-08-30T09:47:48;98079.83;;;17.78;84.37
59939;BME280;45801;51.810;19.444;2023-08-30T09:50:19;98078.77;;;17.78;84.48
59939;BME280;45801;51.810;19.444;2023-08-30T09:52:49;98077.88;;;17.78;84.44
59939;BME280;45801;51.810;19.444;2023-08-30T09:55:22;98074.88;;;17.76;84.50
59939;BME280;45801;51.810;19.444;2023-08-30T09:57:50;98072.93;;;17.76;84.42
59939;BME280;45801;51.810;19.444;2023-08-30T10:00:16;98074.52;;;17.76;84.34
59939;BME280;45801;51.810;19.444;2023-08-30T10:02:43;98078.05;;;17.78;83.97
59939;BME280;45801;51.810;19.444;2023-08-30T10:05:10;98082.47;;;17.79;83.73
59939;BME280;45801;51.810;19.444;2023-08-30T10:07:37;98086.90;;;17.79;83.51
59939;BME280;45801;51.810;19.444;2023-08-30T10:10:05;98087.95;;;17.79;83.27
59939;BME280;45801;51.810;19.444;2023-08-30T10:12:32;98087.26;;;17.78;83.06
59939;BME280;45801;51.810;19.444;2023-08-30T10:14:59;98084.98;;;17.75;83.28
59939;BME280;45801;51.810;19.444;2023-08-30T10:17:32;98088.36;;;17.72;83.77
59939;BME280;45801;51.810;19.444;2023-08-30T10:20:04;98092.08;;;17.70;83.88
59939;BME280;45801;51.810;19.444;2023-08-30T10:22:32;98090.84;;;17.70;83.70
59939;BME280;45801;51.810;19.444;2023-08-30T10:25:04;98091.73;;;17.68;83.74
59939;BME280;45801;51.810;19.444;2023-08-30T10:27:33;98091.91;;;17.67;83.87
59939;BME280;45801;51.810;19.444;2023-08-30T10:30:04;98094.39;;;17.69;84.22
59939;BME280;45801;51.810;19.444;2023-08-30T10:32:34;98098.46;;;17.70;83.67
59939;BME280;45801;51.810;19.444;2023-08-30T10:35:04;98099.87;;;17.71;83.80
59939;BME280;45801;51.810;19.444;2023-08-30T10:37:30;98098.98;;;17.72;83.24
59939;BME280;45801;51.810;19.444;2023-08-30T10:40:00;98099.15;;;17.73;83.06
59939;BME280;45801;51.810;19.444;2023-08-30T10:42:29;98097.91;;;17.73;83.64
59939;BME280;45801;51.810;19.444;2023-08-30T10:45:04;98094.20;;;17.74;84.13
59939;BME280;45801;51.810;19.444;2023-08-30T10:47:33;98096.30;;;17.76;83.75
59939;BME280;45801;51.810;19.444;2023-08-30T10:50:05;98093.98;;;17.78;83.63
59939;BME280;45801;51.810;19.444;2023-08-30T10:52:32;98096.46;;;17.81;83.22
59939;BME280;45801;51.810;19.444;2023-08-30T10:55:14;98100.89;;;17.83;82.98
59939;BME280;45801;51.810;19.444;2023-08-30T10:57:42;98107.44;;;17.85;83.26
59939;BME280;45801;51.810;19.444;2023-08-30T11:02:48;98112.38;;;17.88;82.71
59939;BME280;45801;51.810;19.444;2023-08-30T11:05:32;98108.84;;;17.86;82.46
59939;BME280;45801;51.810;19.444;2023-08-30T11:07:58;98106.36;;;17.86;83.11
59939;BME280;45801;51.810;19.444;2023-08-30T11:10:24;98106.19;;;17.88;83.48
59939;BME280;45801;51.810;19.444;2023-08-30T11:12:51;98103.53;;;17.89;83.94
59939;BME280;45801;51.810;19.444;2023-08-30T11:15:17;98102.48;;;17.89;84.39
59939;BME280;45801;51.810;19.444;2023-08-30T11:17:43;98101.41;;;17.91;84.33
59939;BME280;45801;51.810;19.444;2023-08-30T11:20:11;98098.02;;;17.95;83.78
59939;BME280;45801;51.810;19.444;2023-08-30T11:22:41;98102.80;;;18.00;83.90
59939;BME280;45801;51.810;19.444;2023-08-30T11:25:08;98107.73;;;18.04;83.58
59939;BME280;45801;51.810;19.444;2023-08-30T11:27:34;98106.66;;;18.06;83.17
59939;BME280;45801;51.810;19.444;2023-08-30T11:30:01;98106.13;;;18.07;83.00
59939;BME280;45801;51.810;19.444;2023-08-30T11:32:35;98105.77;;;18.07;83.26
59939;BME280;45801;51.810;19.444;2023-08-30T11:35:02;98104.55;;;18.03;83.25
59939;BME280;45801;51.810;19.444;2023-08-30T11:37:28;98101.21;;;18.01;83.73
59939;BME280;45801;51.810;19.444;2023-08-30T11:39:57;98099.97;;;18.00;83.94
59939;BME280;45801;51.810;19.444;2023-08-30T11:42:24;98095.54;;;17.98;83.94
59939;BME280;45801;51.810;19.444;2023-08-30T11:44:50;98098.37;;;17.98;83.77
59939;BME280;45801;51.810;19.444;2023-08-30T11:47:20;98101.20;;;17.98;83.67
59939;BME280;45801;51.810;19.444;2023-08-30T11:49:49;98097.84;;;17.99;83.79
59939;BME280;45801;51.810;19.444;2023-08-30T11:52:19;98094.80;;;18.03;84.00
59939;BME280;45801;51.810;19.444;2023-08-30T11:54:48;98095.64;;;18.11;83.47
59939;BME280;45801;51.810;19.444;2023-08-30T11:57:15;98093.15;;;18.15;82.68
59939;BME280;45801;51.810;19.444;2023-08-30T11:59:41;98092.79;;;18.17;82.78
59939;BME280;45801;51.810;19.444;2023-08-30T12:02:07;98091.53;;;18.19;83.02
59939;BME280;45801;51.810;19.444;2023-08-30T12:04:42;98090.82;;;18.21;83.26
59939;BME280;45801;51.810;19.444;2023-08-30T12:07:09;98091.69;;;18.25;83.23
59939;BME280;45801;51.810;19.444;2023-08-30T12:09:34;98091.65;;;18.29;83.40
59939;BME280;45801;51.810;19.444;2023-08-30T12:12:09;98092.87;;;18.33;83.10
59939;BME280;45801;51.810;19.444;2023-08-30T12:14:35;98095.16;;;18.35;82.85
59939;BME280;45801;51.810;19.444;2023-08-30T12:17:02;98096.58;;;18.36;82.76
59939;BME280;45801;51.810;19.444;2023-08-30T12:19:29;98095.52;;;18.36;82.36
59939;BME280;45801;51.810;19.444;2023-08-30T12:21:55;98093.39;;;18.35;82.43
59939;BME280;45801;51.810;19.444;2023-08-30T12:24:21;98090.20;;;18.36;82.59
59939;BME280;45801;51.810;19.444;2023-08-30T12:26:48;98083.64;;;18.36;81.72
59939;BME280;45801;51.810;19.444;2023-08-30T12:29:14;98078.15;;;18.34;81.88
59939;BME280;45801;51.810;19.444;2023-08-30T12:31:40;98076.02;;;18.36;82.23
59939;BME280;45801;51.810;19.444;2023-08-30T12:34:06;98070.66;;;18.42;81.71
59939;BME280;45801;51.810;19.444;2023-08-30T12:36:32;98071.55;;;18.43;82.36
59939;BME280;45801;51.810;19.444;2023-08-30T12:38:58;98067.61;;;18.46;82.49
59939;BME280;45801;51.810;19.444;2023-08-30T12:41:36;98064.54;;;18.54;82.08
59939;BME280;45801;51.810;19.444;2023-08-30T12:44:14;98058.83;;;18.62;82.21
59939;BME280;45801;51.810;19.444;2023-08-30T12:46:42;98058.21;;;18.69;82.42
59939;BME280;45801;51.810;19.444;2023-08-30T12:49:08;98059.93;;;18.76;81.68
59939;BME280;45801;51.810;19.444;2023-08-30T12:51:34;98064.51;;;18.82;81.70
59939;BME280;45801;51.810;19.444;2023-08-30T12:53:59;98059.33;;;18.88;81.44
59939;BME280;45801;51.810;19.444;2023-08-30T12:56:28;98053.11;;;18.92;81.51